Shipston-on-Stour, United Kingdom
Current Conditions -  °F | °C
As of 7:20 PM on Sunday 21 Dec 2014 (Local Time) from EGTK Reporting Station
Overcast Overcast  
Wind Chill: 10°   Ceiling: 400
Heat Index: 10°   Visibility: 5mi
Dew Point: 10°   Wind: 18mph
Humidity: 100%   Direction: 220°SW
Pressure: 30.15"   Gusts: NA
Location:  52.06°N, 1.63°W
Report Text: EGTK 211920Z 22016KT 8000 BKN004 OVC006 10/10 Q1021
Loading
Personal Weather Stations






























Interactive Weather Map New forecast layout! Learn more

10-Day Weather Forecast

Advertisements
Track Severe Weather on mobile